Sunday, October 21, 2018, 2:10 AM EDT
Back to Local

KAFN, Jaffrey Muni-silver Ranch

Location: Jaffrey, NH, United States Lat: 42.8
Local Time: 2:10 AM EDT ( 6:10 GMT) Lon: -72
Time Zone: US/Eastern Elev: 1040 ft

Show me the last for .
Show Decoded

2018-10-21 01:52 METAR KAFN 210552Z AUTO 00000KT 10SM OVC080 06/06 A2958 RMK AO2 SLP026 T00610056
                 10067 20044 58003 =
2018-10-21 00:52 METAR KAFN 210452Z AUTO 00000KT 10SM SCT075 OVC090 06/06 A2959 RMK AO2 SLP026
                 T00610056 401440044 =
2018-10-20 23:52 METAR KAFN 210352Z AUTO 00000KT 10SM OVC080 06/05 A2959 RMK AO2 SLP029 T00560050
                 =
2018-10-20 22:52 METAR KAFN 210252Z AUTO 17003KT 10SM OVC090 06/06 A2959 RMK AO2 SLP029 T00610056
                 51004 =
2018-10-20 21:52 METAR KAFN 210152Z AUTO 00000KT 10SM OVC090 06/06 A2959 RMK AO2 SLP030 T00560056
                 =
2018-10-20 20:52 METAR KAFN 210052Z AUTO 00000KT 10SM CLR 05/04 A2958 RMK AO2 SLP025 T00500044 =
2018-10-20 19:52 METAR KAFN 202352Z AUTO 00000KT 10SM FEW080 06/05 A2958 RMK AO2 SLP025 60000
                 T00560050 10139 20056 53005 =
2018-10-20 18:52 METAR KAFN 202252Z AUTO 19003KT 10SM CLR 09/05 A2957 RMK AO2 SLP021 T00940050 =
2018-10-20 17:52 METAR KAFN 202152Z AUTO VRB04KT 10SM CLR 12/05 A2956 RMK AO2 SLP014 T01220050 =
2018-10-20 16:52 METAR KAFN 202052Z AUTO VRB06KT 10SM SCT100 13/04 A2956 RMK AO2 SLP016 60000
                 T01330044 56012 =
2018-10-20 15:52 METAR KAFN 201952Z AUTO 25008KT 10SM FEW035 FEW075 14/06 A2957 RMK AO2 SLP018
                 T01390056 =
2018-10-20 14:52 METAR KAFN 201852Z AUTO 27009G16KT 190V300 10SM FEW055 13/06 A2958 RMK AO2
                 RAE1754B15E28 SLP021 P0000 T01330056 =
2018-10-20 13:52 METAR KAFN 201752Z AUTO 31008G16KT 10SM -RA BKN032 BKN040 OVC060 13/07 A2960 RMK
                 AO2 RAB45 SLP029 P0000 60000 T01280072 10144 20106 58008 =
2018-10-20 12:52 METAR KAFN 201652Z AUTO 23008G14KT 200V270 10SM FEW030 OVC046 14/07 A2961 RMK
                 AO2 SLP032 T01440072 =
2018-10-20 11:52 METAR KAFN 201552Z AUTO 23007G19KT 210V270 10SM SCT029 OVC040 13/08 A2962 RMK
                 AO2 SLP035 T01330078 =
2018-10-20 10:52 METAR KAFN 201452Z AUTO 21007KT 180V250 10SM SCT035 BKN060 13/08 A2962 RMK AO2
                 SLP037 T01280083 58005 =
2018-10-20 09:52 METAR KAFN 201352Z AUTO 23009G18KT 10SM BKN030 OVC035 11/08 A2964 RMK AO2 SLP044
                 T01110083 =
2018-10-20 09:03 METAR KAFN 201303Z AUTO 21012G18KT 190V260 10SM FEW015 OVC032 11/08 A2963 RMK
                 AO2 T01110083 =
2018-10-20 08:52 METAR KAFN 201252Z AUTO 21008G16KT 180V240 10SM BKN015 OVC033 11/08 A2964 RMK
                 AO2 SLP042 T01060083 =
2018-10-20 07:52 METAR KAFN 201152Z AUTO 22010G23KT 190V260 10SM OVC018 11/08 A2964 RMK AO2
                 SLP044 60000 T01060078 10106 20100 55008 =
2018-10-20 07:28 METAR KAFN 201128Z AUTO 22009G21KT 10SM BKN020 BKN043 OVC065 11/08 A2962 RMK AO2
                 T01060078 =
2018-10-20 06:52 METAR KAFN 201052Z AUTO 21013G22KT 10SM FEW021 BKN044 OVC065 11/07 A2962 RMK AO2
                 SLP038 T01060072 =
2018-10-20 05:52 METAR KAFN 200952Z AUTO 20014G21KT 10SM OVC050 11/07 A2964 RMK AO2 RAE0854
                 SLP044 P0000 T01060067 =
2018-10-20 04:52 METAR KAFN 200852Z AUTO 21011G18KT 10SM -RA OVC065 10/07 A2966 RMK AO2
                 RAB0756E12B45 SLP051 P0000 60000 T01000067 56032 =
2018-10-20 03:52 METAR KAFN 200752Z AUTO 21013G23KT 10SM BKN090 BKN110 11/06 A2968 RMK AO2 SLP057
                 T01060061 =
2018-10-20 02:52 METAR KAFN 200652Z AUTO 20012G20KT 10SM BKN100 10/06 A2972 RMK AO2 SLP072
                 T01000056 =

Support USWX by starting your Amazon purchase here.